Time;durP1;ratioP1;P1;durP2;ratioP2;P2;SDS_P1;SDS_P2;PMS_P1;PMS_P2;Temp;Humidity;BMP_temperature;BMP_pressure;BME280_temperature;BME280_humidity;BME280_pressure;Samples;Min_cycle;Max_cycle;Signal;HPM_P1;HPM_P2
2022/03/13 00:00:47;;;;;;;3.63;2.53;;;;;;;21.12;31.88;101487.53;5111582;28;20054;-69
2022/03/13 00:03:14;;;;;;;3.57;1.80;;;;;;;19.80;33.79;101487.53;5111199;28;20122;-69
2022/03/13 00:05:42;;;;;;;4.20;2.00;;;;;;;19.39;34.52;101492.56;5130879;28;20031;-69
2022/03/13 00:08:18;;;;;;;3.60;2.13;;;;;;;19.84;34.80;101488.31;5130119;28;20131;-69
2022/03/13 00:10:46;;;;;;;2.83;1.93;;;;;;;19.70;34.22;101485.25;5112885;28;20623;-69
2022/03/13 00:13:14;;;;;;;3.07;1.70;;;;;;;19.68;34.66;101487.97;5114554;27;20035;-69
2022/03/13 00:15:40;;;;;;;3.63;2.20;;;;;;;19.82;34.71;101485.72;5133794;27;20041;-69
2022/03/13 00:18:11;;;;;;;2.37;1.60;;;;;;;18.86;36.37;101482.91;5115830;27;20025;-69
2022/03/13 00:20:37;;;;;;;2.43;1.77;;;;;;;18.82;36.50;101476.88;5115961;27;20432;-69
2022/03/13 00:23:02;;;;;;;2.90;1.90;;;;;;;18.61;36.66;101488.19;5133953;27;20027;-69
2022/03/13 00:25:27;;;;;;;2.50;1.53;;;;;;;19.27;35.63;101477.13;5134212;27;20409;-69
2022/03/13 00:27:53;;;;;;;4.30;1.90;;;;;;;19.85;34.86;101474.09;5133992;27;20038;-70
2022/03/13 00:30:19;;;;;;;3.10;2.10;;;;;;;19.01;36.43;101480.72;5134045;27;20558;-69
2022/03/13 00:32:44;;;;;;;5.00;2.23;;;;;;;19.24;35.72;101471.94;5115737;27;20019;-69
2022/03/13 00:35:11;;;;;;;4.50;2.17;;;;;;;18.20;37.62;101471.88;5102466;28;20480;-69
2022/03/13 00:37:36;;;;;;;3.20;1.90;;;;;;;18.09;37.58;101483.69;5111405;27;20122;-69
2022/03/13 00:40:02;;;;;;;3.60;1.83;;;;;;;19.37;35.36;101469.69;5115973;27;20058;-69
2022/03/13 00:42:28;;;;;;;4.63;1.83;;;;;;;18.85;36.03;101469.72;5114312;27;20046;-69
2022/03/13 00:44:53;;;;;;;2.87;1.80;;;;;;;18.94;35.71;101469.47;5115254;27;20031;-69
2022/03/13 00:47:20;;;;;;;3.27;1.97;;;;;;;19.22;35.01;101469.34;5115477;27;20467;-70
2022/03/13 00:49:47;;;;;;;3.17;1.93;;;;;;;18.90;35.63;101462.53;5114988;27;20531;-69
2022/03/13 00:52:12;;;;;;;3.20;2.00;;;;;;;18.34;36.29;101464.38;5115299;27;20023;-69
2022/03/13 00:54:38;;;;;;;2.87;1.80;;;;;;;19.20;34.57;101457.94;5115300;27;20506;-69
2022/03/13 00:57:03;;;;;;;3.27;2.00;;;;;;;18.23;36.48;101466.47;5115101;27;20030;-69
2022/03/13 00:59:29;;;;;;;3.10;1.73;;;;;;;18.37;36.52;101469.56;5115767;27;20110;-69
2022/03/13 01:01:54;;;;;;;3.30;1.70;;;;;;;19.63;34.22;101458.09;5114216;27;20027;-69
2022/03/13 01:04:20;;;;;;;2.67;1.90;;;;;;;18.60;35.99;101460.88;5113328;27;20027;-70
2022/03/13 01:06:46;;;;;;;3.40;2.00;;;;;;;18.78;35.53;101459.38;5115952;27;20050;-69
2022/03/13 01:09:11;;;;;;;3.47;2.10;;;;;;;18.25;36.20;101459.38;5098394;27;20195;-69
2022/03/13 01:11:36;;;;;;;3.37;2.13;;;;;;;18.76;35.52;101455.91;5114346;27;20038;-69
2022/03/13 01:14:02;;;;;;;2.30;1.87;;;;;;;18.30;36.31;101457.47;5114063;27;20485;-69
2022/03/13 01:16:34;;;;;;;2.57;1.90;;;;;;;18.99;35.33;101456.91;5108534;28;20023;-69
2022/03/13 01:18:59;;;;;;;2.53;1.90;;;;;;;18.42;35.51;101450.88;5122093;27;20030;-69
2022/03/13 01:21:29;;;;;;;2.93;1.80;;;;;;;18.70;36.04;101456.13;5115169;27;20371;-69
2022/03/13 01:24:09;;;;;;;2.90;1.90;;;;;;;19.42;34.57;101450.03;5114943;27;20509;-69
2022/03/13 01:26:36;;;;;;;3.00;2.13;;;;;;;19.71;33.85;101444.56;5113985;27;20027;-69
2022/03/13 01:29:08;;;;;;;2.67;1.73;;;;;;;19.23;34.73;101443.69;5114817;27;20023;-69
2022/03/13 01:31:36;;;;;;;3.90;1.97;;;;;;;19.39;34.02;101434.25;5113709;27;20030;-69
2022/03/13 01:34:04;;;;;;;3.17;1.77;;;;;;;19.40;34.24;101435.13;5114896;27;20095;-69
2022/03/13 01:36:29;;;;;;;2.67;1.83;;;;;;;19.27;33.82;101432.91;5114254;27;20038;-69
2022/03/13 01:38:56;;;;;;;3.70;1.70;;;;;;;20.21;32.71;101432.88;5113202;27;20042;-69
2022/03/13 01:41:27;;;;;;;4.03;1.90;;;;;;;20.29;32.88;101433.44;5114347;27;20082;-69
2022/03/13 01:43:54;;;;;;;4.10;2.20;;;;;;;18.02;36.11;101437.16;5132455;27;20126;-69
2022/03/13 01:46:19;;;;;;;3.50;1.87;;;;;;;20.48;31.99;101430.88;5131831;27;20528;-70
2022/03/13 01:49:03;;;;;;;3.07;1.87;;;;;;;20.16;32.88;101420.66;5133381;27;20027;-69
2022/03/13 01:51:31;;;;;;;3.20;1.70;;;;;;;18.80;34.50;101415.16;5114111;27;20023;-69
2022/03/13 01:53:58;;;;;;;3.03;1.60;;;;;;;19.46;34.33;101411.91;5131626;27;20445;-69
2022/03/13 01:56:24;;;;;;;3.30;2.13;;;;;;;19.78;33.17;101412.47;5132793;27;20066;-69
2022/03/13 01:58:52;;;;;;;2.43;1.40;;;;;;;19.67;33.21;101404.03;5133291;27;20103;-70
2022/03/13 02:01:18;;;;;;;3.80;1.73;;;;;;;19.82;33.21;101406.13;5113059;27;20042;-69
2022/03/13 02:03:45;;;;;;;1.90;1.53;;;;;;;19.91;33.04;101404.03;5132801;27;20038;-70
2022/03/13 02:06:10;;;;;;;3.73;1.97;;;;;;;18.75;34.58;101405.63;5113614;27;20046;-69
2022/03/13 02:08:38;;;;;;;3.70;1.90;;;;;;;19.68;33.00;101400.47;5132128;27;20106;-69
2022/03/13 02:11:05;;;;;;;2.40;1.63;;;;;;;19.49;33.70;101397.66;5113798;27;20030;-69
2022/03/13 02:13:33;;;;;;;3.23;1.97;;;;;;;19.03;34.35;101400.25;5113531;27;20027;-70
2022/03/13 02:15:58;;;;;;;3.70;2.33;;;;;;;18.57;35.54;101400.06;5113230;27;20071;-70
2022/03/13 02:18:23;;;;;;;2.87;1.83;;;;;;;20.66;31.67;101381.41;5113834;27;20741;-70
2022/03/13 02:20:49;;;;;;;2.70;1.70;;;;;;;20.98;30.97;101387.16;5131677;27;20478;-69
2022/03/13 02:23:21;;;;;;;3.40;1.80;;;;;;;20.00;32.53;101398.34;5131810;27;20027;-69
2022/03/13 02:25:49;;;;;;;2.83;1.60;;;;;;;20.29;32.29;101391.84;5114371;27;20019;-69
2022/03/13 02:28:19;;;;;;;2.60;1.90;;;;;;;19.81;33.14;101388.50;5130210;27;20055;-69
2022/03/13 02:30:45;;;;;;;2.67;1.50;;;;;;;20.67;31.98;101381.34;5113710;27;20027;-69
2022/03/13 02:33:10;;;;;;;3.37;1.70;;;;;;;20.22;32.48;101377.09;5131260;27;20356;-69
2022/03/13 02:35:35;;;;;;;2.57;1.90;;;;;;;20.86;31.51;101377.94;5112803;27;20435;-70
2022/03/13 02:38:01;;;;;;;4.57;2.10;;;;;;;22.26;29.33;101367.78;5113300;27;20034;-69
2022/03/13 02:40:27;;;;;;;4.23;2.10;;;;;;;20.06;32.29;101374.22;5131839;27;20059;-69
2022/03/13 02:42:53;;;;;;;2.60;1.70;;;;;;;20.55;31.99;101362.44;5112426;27;20019;-70
2022/03/13 02:45:36;;;;;;;4.10;2.30;;;;;;;20.61;31.94;101357.75;5113475;27;20453;-69
2022/03/13 02:48:04;;;;;;;3.17;2.13;;;;;;;21.40;30.91;101351.53;5112333;27;20015;-70
2022/03/13 02:50:30;;;;;;;2.93;1.97;;;;;;;20.60;32.39;101360.47;5130835;27;20023;-69
2022/03/13 02:52:55;;;;;;;2.93;1.90;;;;;;;20.45;32.40;101352.22;5113108;27;20076;-69
2022/03/13 02:55:21;;;;;;;2.50;2.00;;;;;;;21.29;30.93;101364.47;5131260;27;20031;-69
2022/03/13 02:57:46;;;;;;;2.83;1.90;;;;;;;21.08;31.56;101367.19;5131472;27;20470;-69
2022/03/13 03:00:13;;;;;;;4.50;1.93;;;;;;;20.59;31.93;101358.72;5112375;27;20438;-69
2022/03/13 03:02:38;;;;;;;3.00;1.80;;;;;;;20.64;32.22;101362.06;5113048;28;20019;-69
2022/03/13 03:05:07;;;;;;;2.77;1.70;;;;;;;19.65;33.52;101360.81;5111838;27;20126;-69
2022/03/13 03:07:34;;;;;;;2.80;1.93;;;;;;;20.31;32.58;101354.63;5113457;28;20031;-69
2022/03/13 03:10:00;;;;;;;5.40;2.10;;;;;;;19.65;33.83;101366.13;5111843;27;20039;-69
2022/03/13 03:12:25;;;;;;;4.37;1.87;;;;;;;19.33;34.57;101365.59;5113001;28;20026;-70
2022/03/13 03:14:50;;;;;;;2.73;2.00;;;;;;;18.36;35.99;101375.22;5112748;27;20467;-69
2022/03/13 03:17:16;;;;;;;3.80;2.10;;;;;;;19.29;34.50;101374.59;5112184;28;20074;-69
2022/03/13 03:19:42;;;;;;;2.83;1.70;;;;;;;19.36;34.43;101372.53;5112694;27;20076;-69
2022/03/13 03:22:07;;;;;;;3.10;1.53;;;;;;;20.24;33.26;101361.97;5112374;28;20042;-69
2022/03/13 03:24:33;;;;;;;2.70;1.80;;;;;;;19.36;34.45;101370.78;5111896;28;20043;-69
2022/03/13 03:26:58;;;;;;;3.53;2.20;;;;;;;19.93;33.61;101355.28;5112482;28;20022;-69
2022/03/13 03:29:25;;;;;;;5.40;1.80;;;;;;;19.91;33.81;101362.44;5112594;28;20473;-70
2022/03/13 03:31:52;;;;;;;3.20;2.07;;;;;;;19.83;33.76;101357.44;5130094;27;20030;-70
2022/03/13 03:34:21;;;;;;;2.63;1.80;;;;;;;19.54;34.53;101363.03;5112830;28;20466;-70
2022/03/13 03:36:53;;;;;;;2.60;1.67;;;;;;;19.91;34.27;101366.91;5112794;28;20549;-70
2022/03/13 03:39:20;;;;;;;3.80;2.30;;;;;;;19.08;34.81;101366.53;5111774;28;20027;-70
2022/03/13 03:41:47;;;;;;;2.23;1.73;;;;;;;19.12;35.44;101372.56;5130992;28;20027;-70
2022/03/13 03:44:13;;;;;;;2.80;2.03;;;;;;;18.68;35.71;101378.50;5130805;28;20029;-70
2022/03/13 03:46:40;;;;;;;2.97;2.00;;;;;;;19.45;34.75;101373.06;5111819;28;20055;-69
2022/03/13 03:49:06;;;;;;;6.27;2.23;;;;;;;18.67;36.38;101368.88;5134676;27;20021;-70
2022/03/13 03:51:32;;;;;;;3.97;2.30;;;;;;;18.50;36.69;101365.94;5116405;27;20018;-69
2022/03/13 03:53:58;;;;;;;4.13;2.57;;;;;;;19.53;34.85;101374.56;5115542;27;20034;-70
2022/03/13 03:56:23;;;;;;;3.57;2.20;;;;;;;19.04;35.52;101367.56;5116411;27;20033;-70
2022/03/13 03:58:48;;;;;;;5.27;3.57;;;;;;;18.53;36.36;101365.81;5117061;27;20027;-69
2022/03/13 04:01:15;;;;;;;5.43;2.97;;;;;;;19.60;34.20;101357.47;5133526;27;20106;-69
2022/03/13 04:03:40;;;;;;;6.00;3.07;;;;;;;19.20;34.99;101364.34;5116510;27;20454;-69
2022/03/13 04:06:06;;;;;;;5.20;3.17;;;;;;;18.31;36.65;101363.91;5134524;27;20018;-69
2022/03/13 04:08:33;;;;;;;6.27;3.40;;;;;;;19.12;34.93;101368.13;5116350;27;20571;-69
2022/03/13 04:11:00;;;;;;;5.87;3.20;;;;;;;16.26;40.76;101368.97;5115547;27;20065;-69
2022/03/13 04:13:25;;;;;;;5.57;3.03;;;;;;;18.00;37.96;101370.22;5134068;27;20030;-69
2022/03/13 04:15:50;;;;;;;4.80;3.30;;;;;;;17.57;37.94;101360.97;5116925;27;20027;-69
2022/03/13 04:18:16;;;;;;;6.47;3.73;;;;;;;17.17;39.44;101362.19;5116434;27;20027;-70
2022/03/13 04:20:42;;;;;;;5.57;3.03;;;;;;;17.93;37.89;101356.34;5133613;27;20094;-69
2022/03/13 04:23:08;;;;;;;4.73;3.10;;;;;;;17.84;38.27;101347.81;5102278;27;20041;-70
2022/03/13 04:25:34;;;;;;;5.53;3.30;;;;;;;18.76;36.81;101349.97;5134345;27;20584;-69
2022/03/13 04:27:59;;;;;;;5.33;3.80;;;;;;;18.94;35.71;101351.13;5115540;27;20368;-69
2022/03/13 04:30:30;;;;;;;5.60;3.23;;;;;;;18.22;37.05;101353.66;5134249;27;20058;-69
2022/03/13 04:32:56;;;;;;;5.77;3.53;;;;;;;18.63;37.13;101348.72;5134022;27;20023;-69
2022/03/13 04:35:22;;;;;;;6.13;3.50;;;;;;;17.89;38.27;101356.47;5133720;27;20019;-69
2022/03/13 04:37:47;;;;;;;8.63;3.70;;;;;;;18.83;36.67;101350.63;5116487;27;20030;-69
2022/03/13 04:40:12;;;;;;;5.27;3.03;;;;;;;17.12;39.97;101359.69;5133859;27;20023;-69
2022/03/13 04:42:38;;;;;;;7.70;3.60;;;;;;;17.43;39.94;101364.03;5114520;27;20448;-69
2022/03/13 04:45:05;;;;;;;8.67;3.67;;;;;;;18.79;37.21;101354.31;5134389;27;20031;-69
2022/03/13 04:47:31;;;;;;;7.63;3.60;;;;;;;18.43;38.52;101358.19;5115484;27;20430;-69
2022/03/13 04:49:57;;;;;;;5.67;3.47;;;;;;;17.67;39.24;101362.44;5114812;27;20498;-69
2022/03/13 04:52:22;;;;;;;4.50;2.97;;;;;;;17.78;38.80;101370.03;5115189;27;20062;-69
2022/03/13 04:54:48;;;;;;;8.07;3.50;;;;;;;16.72;41.32;101366.91;5115630;27;20156;-70
2022/03/13 04:57:14;;;;;;;5.20;3.13;;;;;;;17.07;40.86;101362.44;5114157;27;20546;-69
2022/03/13 04:59:39;;;;;;;7.37;3.43;;;;;;;18.86;37.45;101354.94;5115444;27;20131;-68
2022/03/13 05:02:05;;;;;;;4.67;3.07;;;;;;;19.18;37.11;101360.84;5114362;27;20027;-69
2022/03/13 05:04:31;;;;;;;5.97;3.20;;;;;;;18.93;37.43;101345.88;5133145;27;20383;-69
2022/03/13 05:06:57;;;;;;;5.83;3.63;;;;;;;19.08;37.32;101355.03;5133820;27;20102;-69
2022/03/13 05:09:23;;;;;;;6.80;3.80;;;;;;;19.35;36.30;101347.84;5115021;27;20072;-70
2022/03/13 05:11:48;;;;;;;7.20;3.63;;;;;;;19.22;36.84;101346.56;5133536;27;20410;-70
2022/03/13 05:14:14;;;;;;;5.40;3.17;;;;;;;19.63;36.55;101352.03;5114348;27;20096;-69
2022/03/13 05:16:39;;;;;;;5.90;3.27;;;;;;;18.43;38.16;101344.97;5114219;27;20039;-69
2022/03/13 05:19:06;;;;;;;6.03;3.40;;;;;;;18.90;38.21;101346.00;5114944;27;20043;-69
2022/03/13 05:21:31;;;;;;;6.03;3.93;;;;;;;19.04;37.56;101349.03;5114904;27;20030;-69
2022/03/13 05:23:57;;;;;;;6.10;3.43;;;;;;;17.74;40.04;101358.69;5131870;27;20047;-69
2022/03/13 05:26:22;;;;;;;4.77;2.90;;;;;;;17.61;40.56;101359.97;5114375;27;20038;-70
2022/03/13 05:28:48;;;;;;;9.33;3.87;;;;;;;16.75;41.74;101350.97;5115143;27;20027;-69
2022/03/13 05:31:13;;;;;;;6.67;2.93;;;;;;;17.78;39.67;101356.81;5113939;27;20084;-69
2022/03/13 05:33:39;;;;;;;7.93;3.60;;;;;;;18.41;38.50;101354.75;5133092;27;20027;-69
2022/03/13 05:36:04;;;;;;;8.03;3.60;;;;;;;19.39;36.99;101354.75;5114610;27;20030;-69
2022/03/13 05:38:30;;;;;;;8.27;3.83;;;;;;;18.03;39.25;101354.25;5132457;27;20062;-70
2022/03/13 05:40:56;;;;;;;4.90;3.03;;;;;;;18.78;37.58;101358.75;5132789;27;20103;-69
2022/03/13 05:43:23;;;;;;;6.33;3.83;;;;;;;17.13;41.09;101362.28;5132940;27;20038;-69
2022/03/13 05:45:49;;;;;;;6.20;3.67;;;;;;;17.46;40.53;101354.25;5113924;27;20029;-69
2022/03/13 05:48:17;;;;;;;6.17;4.00;;;;;;;17.19;40.84;101355.09;5132172;27;20034;-69
2022/03/13 05:50:44;;;;;;;6.70;3.57;;;;;;;18.94;38.14;101347.63;5114908;27;20027;-70
2022/03/13 05:53:09;;;;;;;6.07;3.90;;;;;;;18.35;38.38;101349.66;5131283;27;20098;-69
2022/03/13 05:55:34;;;;;;;7.43;4.30;;;;;;;19.16;37.19;101347.66;5133150;27;20106;-69
2022/03/13 05:58:00;;;;;;;5.13;3.07;;;;;;;17.67;40.15;101354.50;5113044;27;20038;-69
2022/03/13 06:00:27;;;;;;;8.27;3.53;;;;;;;17.23;41.48;101352.31;5113624;27;20080;-69
2022/03/13 06:02:53;;;;;;;8.30;4.00;;;;;;;16.31;43.60;101363.59;5132121;27;20022;-69
2022/03/13 06:05:21;;;;;;;7.97;4.37;;;;;;;17.32;40.93;101355.56;5132207;27;20130;-69
2022/03/13 06:07:47;;;;;;;7.80;4.93;;;;;;;19.41;36.85;101352.91;5112707;27;20514;-69
2022/03/13 06:10:14;;;;;;;10.80;5.53;;;;;;;17.93;39.55;101358.13;5131463;27;20022;-69
2022/03/13 06:12:40;;;;;;;9.83;5.23;;;;;;;19.04;37.76;101351.66;5113541;27;20134;-69
2022/03/13 06:15:07;;;;;;;9.40;5.00;;;;;;;19.70;36.28;101350.91;5131339;27;20181;-69
2022/03/13 06:17:38;;;;;;;8.20;5.07;;;;;;;19.43;36.91;101351.06;5132250;27;20027;-69
2022/03/13 06:20:07;;;;;;;7.87;5.00;;;;;;;17.35;40.23;101347.56;5131807;27;20126;-69
2022/03/13 06:22:32;;;;;;;9.97;5.00;;;;;;;17.23;41.02;101362.00;5131546;27;20034;-69
2022/03/13 06:24:58;;;;;;;10.47;5.33;;;;;;;17.08;41.28;101358.88;5112137;27;20046;-69
2022/03/13 06:27:23;;;;;;;12.27;6.73;;;;;;;17.26;41.55;101340.78;5112781;27;20023;-69
2022/03/13 06:29:49;;;;;;;12.07;6.27;;;;;;;17.28;40.42;101357.44;5107788;28;20057;-69
2022/03/13 06:32:14;;;;;;;10.70;6.53;;;;;;;17.28;40.93;101354.78;5107390;27;20023;-69
2022/03/13 06:34:41;;;;;;;11.47;6.17;;;;;;;17.72;39.87;101352.59;5113605;27;20107;-70
2022/03/13 06:37:08;;;;;;;12.17;6.63;;;;;;;15.89;43.27;101363.75;5113020;27;20029;-69
2022/03/13 06:39:33;;;;;;;12.23;6.67;;;;;;;17.38;40.38;101350.09;5091445;27;20106;-69
2022/03/13 06:41:59;;;;;;;15.87;7.30;;;;;;;16.37;42.39;101352.00;5078607;27;20090;-69
2022/03/13 06:44:24;;;;;;;16.40;6.73;;;;;;;16.35;42.01;101352.06;5100680;27;20489;-71
2022/03/13 06:46:49;;;;;;;16.03;7.50;;;;;;;17.05;41.18;101350.19;5112991;27;20026;-69
2022/03/13 06:49:15;;;;;;;14.30;7.97;;;;;;;17.98;39.21;101353.53;5111829;27;20416;-71
2022/03/13 06:51:40;;;;;;;17.00;7.77;;;;;;;16.87;41.34;101349.78;5131181;27;20015;-69
2022/03/13 06:54:07;;;;;;;15.03;7.70;;;;;;;17.01;41.82;101356.47;5112383;27;20459;-71
2022/03/13 06:56:34;;;;;;;13.80;7.30;;;;;;;16.83;41.94;101357.81;5130856;27;20023;-69
2022/03/13 06:59:03;;;;;;;15.77;8.13;;;;;;;16.60;42.19;101357.53;5113363;27;20019;-68
2022/03/13 07:01:32;;;;;;;14.20;7.60;;;;;;;16.24;43.90;101354.09;5130925;27;20057;-68
2022/03/13 07:03:57;;;;;;;15.50;7.77;;;;;;;16.25;44.37;101372.53;5130372;27;20474;-68
2022/03/13 07:06:22;;;;;;;21.97;9.30;;;;;;;16.17;44.57;101368.31;5111547;27;20023;-68
2022/03/13 07:08:48;;;;;;;16.90;8.27;;;;;;;15.89;45.75;101367.22;5112957;27;20027;-68
2022/03/13 07:11:15;;;;;;;20.00;9.97;;;;;;;16.42;44.17;101361.53;5111590;28;20534;-70
2022/03/13 07:13:44;;;;;;;19.67;9.57;;;;;;;16.39;44.03;101364.25;5113312;27;20015;-70
2022/03/13 07:16:10;;;;;;;20.63;10.13;;;;;;;16.95;42.95;101358.38;5130198;27;20027;-70
2022/03/13 07:18:36;;;;;;;18.40;9.17;;;;;;;17.90;40.71;101360.81;5113223;28;20518;-70
2022/03/13 07:21:02;;;;;;;17.97;9.27;;;;;;;16.90;42.59;101362.06;5111880;28;20423;-70
2022/03/13 07:23:27;;;;;;;21.83;10.60;;;;;;;17.18;42.41;101363.91;5112174;28;20020;-68
2022/03/13 07:25:52;;;;;;;21.00;9.97;;;;;;;16.87;42.32;101365.63;5130961;27;20027;-68
2022/03/13 07:28:18;;;;;;;23.80;11.03;;;;;;;16.03;44.33;101372.19;5113168;28;20038;-69
2022/03/13 07:30:44;;;;;;;27.53;12.30;;;;;;;15.35;45.58;101368.41;5111566;28;20031;-68
2022/03/13 07:33:10;;;;;;;21.27;10.30;;;;;;;16.37;43.74;101366.06;5129338;28;20030;-68
2022/03/13 07:35:36;;;;;;;23.57;10.57;;;;;;;16.15;44.13;101381.56;5112754;28;20027;-70
2022/03/13 07:38:02;;;;;;;22.47;10.57;;;;;;;16.39;43.73;101358.97;5130344;28;20054;-70
2022/03/13 07:40:27;;;;;;;24.10;11.23;;;;;;;16.05;44.61;101375.66;5130696;28;20490;-70
2022/03/13 07:42:53;;;;;;;24.77;11.67;;;;;;;17.86;40.95;101368.00;5093678;28;20368;-68
2022/03/13 07:45:18;;;;;;;26.43;10.07;;;;;;;16.61;41.97;101368.97;5112327;28;20172;-68
2022/03/13 07:47:44;;;;;;;21.23;11.40;;;;;;;17.48;41.33;101366.56;5112923;28;20458;-68
2022/03/13 07:50:10;;;;;;;23.13;11.73;;;;;;;18.31;40.36;101358.63;5112223;28;20027;-69
2022/03/13 07:52:35;;;;;;;18.40;10.27;;;;;;;18.61;38.33;101361.97;5111726;28;20144;-70
2022/03/13 07:55:01;;;;;;;23.87;11.50;;;;;;;20.12;36.18;101350.06;5112238;28;20069;-70
2022/03/13 07:57:28;;;;;;;20.80;9.77;;;;;;;20.17;35.73;101349.91;5112769;28;20134;-68
2022/03/13 07:59:54;;;;;;;19.40;10.30;;;;;;;18.18;39.20;101357.31;5111698;28;20019;-71
2022/03/13 08:02:19;;;;;;;22.17;10.80;;;;;;;19.82;36.64;101350.44;5112190;28;20107;-68
2022/03/13 08:04:44;;;;;;;19.80;10.87;;;;;;;19.96;35.66;101348.97;5112358;28;20425;-69
2022/03/13 08:07:10;;;;;;;21.17;10.53;;;;;;;19.23;36.87;101348.31;5094875;28;20028;-70
2022/03/13 08:09:36;;;;;;;21.93;10.30;;;;;;;17.34;40.51;101354.63;5112540;28;20367;-68
2022/03/13 08:12:02;;;;;;;24.73;12.77;;;;;;;19.11;37.06;101344.31;5130834;28;20025;-70
2022/03/13 08:14:27;;;;;;;21.97;10.33;;;;;;;17.58;39.22;101344.22;5129600;28;20027;-70
2022/03/13 08:16:53;;;;;;;21.10;10.20;;;;;;;17.06;40.79;101339.59;5111490;28;20491;-70
2022/03/13 08:19:18;;;;;;;24.83;11.23;;;;;;;17.27;40.27;101343.38;5129874;28;20034;-71
2022/03/13 08:21:44;;;;;;;24.43;12.20;;;;;;;18.94;37.69;101347.63;5130939;28;20027;-71
2022/03/13 08:24:10;;;;;;;19.90;10.60;;;;;;;18.98;36.88;101343.94;5111494;28;20506;-69
2022/03/13 08:26:39;;;;;;;22.60;11.33;;;;;;;20.18;35.71;101343.66;5112016;28;20061;-69
2022/03/13 08:29:06;;;;;;;24.60;11.77;;;;;;;18.95;37.93;101344.06;5111816;28;20042;-69
2022/03/13 08:31:33;;;;;;;27.23;12.50;;;;;;;20.25;35.37;101344.25;5112741;28;20019;-70
2022/03/13 08:33:58;;;;;;;21.97;11.47;;;;;;;19.97;35.37;101350.72;5131409;27;20501;-70
2022/03/13 08:36:24;;;;;;;22.27;11.00;;;;;;;17.81;38.97;101357.56;5115351;27;20031;-69
2022/03/13 08:38:49;;;;;;;22.17;10.27;;;;;;;18.71;37.79;101346.66;5111005;27;20027;-70
2022/03/13 08:41:15;;;;;;;18.37;9.17;;;;;;;18.60;38.31;101347.03;5114186;27;20030;-71
2022/03/13 08:43:40;;;;;;;21.60;11.20;;;;;;;17.87;39.22;101347.69;5134163;27;20122;-70
2022/03/13 08:46:05;;;;;;;21.63;10.20;;;;;;;18.22;38.67;101348.38;5115535;27;20084;-69
2022/03/13 08:48:31;;;;;;;21.00;10.10;;;;;;;19.41;36.61;101338.78;5113704;27;20106;-69
2022/03/13 08:50:57;;;;;;;21.67;10.13;;;;;;;19.48;36.32;101342.91;5134204;27;20471;-70
2022/03/13 08:53:23;;;;;;;21.33;10.17;;;;;;;18.18;38.42;101338.81;5134059;27;20023;-69
2022/03/13 08:55:48;;;;;;;21.50;10.53;;;;;;;19.38;36.79;101337.09;5133597;27;20482;-69
2022/03/13 08:58:14;;;;;;;23.53;10.10;;;;;;;18.11;38.23;101340.78;5114947;27;20079;-70
2022/03/13 09:00:40;;;;;;;20.77;10.63;;;;;;;18.23;37.64;101336.84;5133418;27;20486;-69
2022/03/13 09:03:05;;;;;;;19.33;9.63;;;;;;;18.79;36.98;101334.00;5114539;27;20489;-70
2022/03/13 09:05:31;;;;;;;23.73;11.17;;;;;;;17.28;38.93;101344.22;5134038;27;20023;-69
2022/03/13 09:07:58;;;;;;;24.33;12.00;;;;;;;20.27;34.33;101327.34;5133615;27;20054;-70
2022/03/13 09:10:23;;;;;;;26.13;10.60;;;;;;;19.89;35.17;101342.22;5097965;27;20053;-70
2022/03/13 09:12:48;;;;;;;24.27;11.20;;;;;;;19.93;35.14;101330.56;5115823;27;20015;-69
2022/03/13 09:15:14;;;;;;;24.23;11.23;;;;;;;18.96;36.21;101335.19;5133216;27;20039;-70
2022/03/13 09:17:39;;;;;;;20.53;10.93;;;;;;;19.82;35.56;101331.88;5114564;27;20027;-70
2022/03/13 09:20:06;;;;;;;20.03;11.00;;;;;;;19.65;35.58;101339.59;5115006;27;20051;-70
2022/03/13 09:22:33;;;;;;;22.20;10.17;;;;;;;20.46;34.07;101327.41;5115441;27;20031;-70
2022/03/13 09:24:59;;;;;;;20.10;9.63;;;;;;;20.89;33.45;101329.13;5114041;27;20080;-69
2022/03/13 09:27:29;;;;;;;18.67;9.85;;;;;;;22.72;30.56;101321.09;5133089;27;20315;-70
2022/03/13 09:29:57;;;;;;;23.08;10.02;;;;;;;23.12;29.53;101325.16;5133030;27;20497;-70
2022/03/13 09:32:24;;;;;;;18.92;10.02;;;;;;;22.30;30.33;101341.88;5133070;27;20045;-70
2022/03/13 09:34:50;;;;;;;18.27;9.23;;;;;;;20.82;32.35;101331.19;5114510;27;20030;-70
2022/03/13 09:37:16;;;;;;;19.52;10.55;;;;;;;22.88;29.37;101325.50;5113888;27;20049;-70
2022/03/13 09:39:41;;;;;;;18.88;9.88;;;;;;;21.47;31.42;101331.72;5115517;27;20516;-70
2022/03/13 09:42:07;;;;;;;17.10;9.25;;;;;;;22.17;30.86;101339.84;5132832;27;20027;-70
2022/03/13 09:44:32;;;;;;;19.70;9.73;;;;;;;22.46;30.74;101332.19;5113958;27;20047;-70
2022/03/13 09:46:58;;;;;;;18.17;9.75;;;;;;;24.17;28.39;101329.84;5108401;27;20099;-70
2022/03/13 09:49:24;;;;;;;19.35;10.45;;;;;;;24.65;27.46;101334.19;5093085;27;20306;-70
2022/03/13 09:51:50;;;;;;;16.90;9.65;;;;;;;23.78;28.25;101333.91;5113130;27;20038;-70
2022/03/13 09:54:15;;;;;;;16.65;9.13;;;;;;;24.07;27.58;101336.72;5113483;27;20031;-70
2022/03/13 09:56:40;;;;;;;17.33;10.40;;;;;;;24.90;26.21;101322.81;5129965;27;20524;-70
2022/03/13 09:59:07;;;;;;;18.27;10.48;;;;;;;25.85;25.12;101326.50;5111440;27;20025;-70
2022/03/13 10:01:33;;;;;;;15.55;9.82;;;;;;;26.49;24.74;101315.06;5112559;27;20045;-70
2022/03/13 10:03:59;;;;;;;16.13;9.68;;;;;;;26.81;24.27;101314.63;5129845;27;20058;-70
2022/03/13 10:06:25;;;;;;;14.35;8.75;;;;;;;25.91;25.13;101318.06;5106956;27;20488;-70
2022/03/13 10:08:51;;;;;;;18.15;10.50;;;;;;;26.82;24.17;101321.72;5110745;27;20019;-70
2022/03/13 10:11:30;;;;;;;12.95;8.02;;;;;;;24.79;26.18;101318.13;5129336;27;20020;-70
2022/03/13 10:14:07;;;;;;;14.70;8.55;;;;;;;24.99;25.63;101316.00;5111586;27;20497;-70
2022/03/13 10:16:38;;;;;;;15.80;9.20;;;;;;;26.49;24.29;101309.69;5129429;27;20029;-70
2022/03/13 10:19:15;;;;;;;14.02;8.02;;;;;;;25.81;25.34;101314.28;5126875;27;20031;-70
2022/03/13 10:22:03;;;;;;;16.00;9.35;;;;;;;25.43;25.48;101320.38;5096105;27;20038;-70
2022/03/13 10:24:29;;;;;;;18.40;10.27;;;;;;;24.85;25.93;101320.44;5129708;27;20122;-70
2022/03/13 10:27:08;;;;;;;16.33;8.48;;;;;;;25.50;25.69;101315.44;5112438;27;20554;-69
2022/03/13 10:29:33;;;;;;;15.68;8.68;;;;;;;22.66;29.01;101316.94;5113672;27;20073;-69
2022/03/13 10:31:59;;;;;;;13.18;8.02;;;;;;;23.79;27.56;101322.25;5107717;28;20031;-70
2022/03/13 10:34:26;;;;;;;14.38;8.07;;;;;;;25.09;25.93;101310.94;5111338;27;20035;-69
2022/03/13 10:36:52;;;;;;;13.68;7.95;;;;;;;22.32;29.20;101316.00;5111725;27;20475;-69
2022/03/13 10:39:20;;;;;;;15.20;8.68;;;;;;;23.30;27.93;101314.38;5113962;27;20045;-69
2022/03/13 10:41:54;;;;;;;15.35;8.77;;;;;;;25.29;26.20;101302.47;5130250;27;20023;-70
2022/03/13 10:44:25;;;;;;;13.98;8.63;;;;;;;25.71;24.98;101310.50;5127189;27;20137;-69
2022/03/13 10:47:05;;;;;;;17.95;8.77;;;;;;;26.81;24.43;101300.38;5112370;27;20054;-70
2022/03/13 10:49:52;;;;;;;17.05;9.32;;;;;;;27.10;23.88;101298.25;5113771;27;20084;-69
2022/03/13 10:52:29;;;;;;;12.52;7.82;;;;;;;27.29;22.96;101296.94;5131403;27;20023;-69
2022/03/13 10:55:13;;;;;;;14.85;8.85;;;;;;;27.63;23.51;101283.69;5130881;27;20400;-69
2022/03/13 10:57:56;;;;;;;13.30;8.35;;;;;;;27.37;23.28;101300.78;5131729;27;20045;-69
2022/03/13 11:00:23;;;;;;;14.70;9.70;;;;;;;27.84;22.72;101298.19;5113515;27;20030;-70
2022/03/13 11:02:49;;;;;;;16.48;9.52;;;;;;;26.81;23.74;101287.81;5130549;27;20022;-69
2022/03/13 11:05:15;;;;;;;13.65;8.43;;;;;;;26.27;24.08;101288.03;5112547;27;20038;-69
2022/03/13 11:07:41;;;;;;;13.05;8.15;;;;;;;25.36;25.38;101292.28;5131901;27;20023;-69
2022/03/13 11:10:09;;;;;;;13.35;8.27;;;;;;;26.23;24.21;101282.88;5130447;27;20543;-69
2022/03/13 11:12:35;;;;;;;12.63;8.10;;;;;;;24.29;26.50;101285.53;5131564;27;20031;-69
2022/03/13 11:15:01;;;;;;;14.77;8.57;;;;;;;25.95;25.35;101277.69;5131645;27;20015;-69
2022/03/13 11:17:30;;;;;;;12.88;8.38;;;;;;;26.26;24.60;101272.94;5112048;27;20023;-70